Hewittville, New York
Current Conditions -  °F | °C
As of 5:53 PM on Thursday 27 Nov 2014 (Local Time) from KMSS Reporting Station
Overcast Overcast  
Wind Chill: -2°   Ceiling: 3600
Heat Index: -2°   Visibility: 10mi
Dew Point: -7°   Wind: 3mph
Humidity: 69%   Direction: 280°W
Pressure: 30.07"   Gusts: NA
Location:  44.7612°N, 74.9585°W
Report Text: KMSS 272253Z AUTO 28003KT 10SM OVC036 M02/M07 A3007 RMK AO2 SLP187 T10221072
Loading
Personal Weather Stations






























Interactive Weather Map New forecast layout! Learn more

10-Day Weather Forecast

Advertisements
Track Severe Weather on mobile